Time;durP1;ratioP1;P1;durP2;ratioP2;P2;SDS_P1;SDS_P2;PMS_P1;PMS_P2;Temp;Humidity;BMP_temperature;BMP_pressure;BME280_temperature;BME280_humidity;BME280_pressure;Samples;Min_cycle;Max_cycle;Signal;HPM_P1;HPM_P2
2022/02/14 00:00:24;;;;;;;113.11;70.59;;;;;;;-0.56;64.63;102422.40;452104;116;930549;-78
2022/02/14 00:01:29;;;;;;;113.54;66.30;;;;;;;-0.56;64.64;102410.82;452023;116;922711;-78
2022/02/14 00:02:32;;;;;;;109.12;66.80;;;;;;;-0.57;64.60;102409.95;452356;115;922520;-81
2022/02/14 00:03:35;;;;;;;102.24;62.46;;;;;;;-0.59;64.59;102403.83;451767;115;923092;-79
2022/02/14 00:04:38;;;;;;;108.65;66.89;;;;;;;-0.60;64.66;102403.91;453057;116;922822;-78
2022/02/14 00:05:41;;;;;;;109.61;64.61;;;;;;;-0.62;64.70;102404.03;452821;116;922700;-79
2022/02/14 00:06:46;;;;;;;109.02;65.00;;;;;;;-0.63;64.70;102402.31;451875;115;922630;-78
2022/02/14 00:07:49;;;;;;;105.19;64.54;;;;;;;-0.65;64.70;102406.89;453747;115;923766;-79
2022/02/14 00:08:53;;;;;;;103.21;64.60;;;;;;;-0.65;64.64;102406.03;453263;116;922888;-80
2022/02/14 00:09:55;;;;;;;105.44;64.67;;;;;;;-0.66;64.66;102401.66;453230;116;923165;-79
2022/02/14 00:10:58;;;;;;;106.83;66.36;;;;;;;-0.68;64.69;102399.07;453133;115;923722;-79
2022/02/14 00:12:02;;;;;;;108.13;65.78;;;;;;;-0.68;64.79;102400.88;452785;116;922706;-79
2022/02/14 00:13:05;;;;;;;111.74;67.89;;;;;;;-0.68;64.79;102400.88;451407;116;922668;-79
2022/02/14 00:14:08;;;;;;;104.17;65.06;;;;;;;-0.68;64.86;102393.71;451484;116;930412;-79
2022/02/14 00:15:12;;;;;;;114.26;68.67;;;;;;;-0.69;64.85;102396.48;450861;115;922592;-80
2022/02/14 00:16:16;;;;;;;106.76;64.24;;;;;;;-0.69;64.79;102391.12;451322;116;922750;-80
2022/02/14 00:17:20;;;;;;;108.50;66.97;;;;;;;-0.70;64.81;102392.94;451122;116;922611;-80
2022/02/14 00:18:23;;;;;;;105.11;64.81;;;;;;;-0.72;64.83;102384.16;450827;116;922773;-79
2022/02/14 00:19:27;;;;;;;106.93;63.81;;;;;;;-0.71;64.89;102380.50;451862;116;924182;-77
2022/02/14 00:20:31;;;;;;;94.05;59.64;;;;;;;-0.69;64.89;102377.73;452571;115;922513;-78
2022/02/14 00:21:34;;;;;;;103.87;61.65;;;;;;;-0.68;64.98;102390.17;452541;116;922637;-77
2022/02/14 00:22:38;;;;;;;99.58;61.39;;;;;;;-0.68;64.94;102388.35;451552;116;930468;-80
2022/02/14 00:23:41;;;;;;;95.79;60.03;;;;;;;-0.68;64.89;102382.13;451404;116;923238;-78
2022/02/14 00:24:44;;;;;;;100.11;58.37;;;;;;;-0.68;64.93;102382.13;451902;116;922588;-78
2022/02/14 00:25:47;;;;;;;95.11;59.95;;;;;;;-0.67;64.98;102386.54;452052;116;922762;-79
2022/02/14 00:26:53;;;;;;;97.27;60.50;;;;;;;-0.68;65.01;102380.32;453113;116;922742;-77
2022/02/14 00:27:55;;;;;;;105.61;62.37;;;;;;;-0.68;65.06;102377.64;451109;115;922543;-79
2022/02/14 00:28:58;;;;;;;101.19;60.85;;;;;;;-0.69;65.11;102377.73;453097;115;922835;-79
2022/02/14 00:30:01;;;;;;;102.16;62.96;;;;;;;-0.69;65.08;102377.73;452673;116;922613;-80
2022/02/14 00:31:05;;;;;;;94.55;59.68;;;;;;;-0.69;65.11;102375.05;452986;115;922616;-79
2022/02/14 00:32:09;;;;;;;104.04;61.42;;;;;;;-0.71;64.99;102377.82;452114;116;922722;-76
2022/02/14 00:33:13;;;;;;;96.04;59.26;;;;;;;-0.71;65.03;102375.14;452719;115;922560;-78
2022/02/14 00:34:16;;;;;;;99.69;59.96;;;;;;;-0.72;65.07;102377.94;453196;116;922522;-80
2022/02/14 00:35:19;;;;;;;97.64;58.97;;;;;;;-0.72;65.17;102373.45;453423;115;923346;-78
2022/02/14 00:36:22;;;;;;;101.12;62.17;;;;;;;-0.72;65.14;102370.77;451635;115;922567;-78
2022/02/14 00:37:26;;;;;;;98.71;60.04;;;;;;;-0.72;65.10;102378.80;451617;116;922599;-80
2022/02/14 00:38:30;;;;;;;90.99;58.83;;;;;;;-0.73;65.11;102371.72;451248;116;922693;-76
2022/02/14 00:39:33;;;;;;;95.05;56.06;;;;;;;-0.73;65.09;102373.54;451507;116;922691;-79
2022/02/14 00:40:36;;;;;;;91.78;55.46;;;;;;;-0.72;65.10;102372.59;450859;115;922570;-77
2022/02/14 00:41:39;;;;;;;92.00;56.49;;;;;;;-0.74;65.11;102370.00;451711;115;922568;-78
2022/02/14 00:42:42;;;;;;;99.67;59.79;;;;;;;-0.73;65.23;102373.54;451686;116;922678;-79
2022/02/14 00:43:46;;;;;;;97.20;60.61;;;;;;;-0.73;65.20;102368.18;452328;115;922595;-77
2022/02/14 00:44:49;;;;;;;88.33;58.35;;;;;;;-0.73;65.15;102366.37;451560;116;922669;-79
2022/02/14 00:45:52;;;;;;;96.41;60.11;;;;;;;-0.74;65.14;102372.67;452408;116;923080;-78
2022/02/14 00:46:55;;;;;;;113.11;64.93;;;;;;;-0.75;65.18;102367.41;451483;116;922886;-76
2022/02/14 00:47:58;;;;;;;105.66;64.58;;;;;;;-0.76;65.26;102369.22;451926;115;922825;-77
2022/02/14 00:49:01;;;;;;;99.35;62.86;;;;;;;-0.76;65.33;102366.55;452678;116;922612;-78
2022/02/14 00:50:05;;;;;;;97.20;61.06;;;;;;;-0.76;65.18;102371.04;452040;116;922884;-77
2022/02/14 00:51:08;;;;;;;107.84;63.97;;;;;;;-0.77;65.15;102363.98;452198;116;922701;-79
2022/02/14 00:52:11;;;;;;;110.47;63.90;;;;;;;-0.78;65.24;102355.09;451480;115;922685;-80
2022/02/14 00:53:14;;;;;;;126.27;72.00;;;;;;;-0.79;65.26;102365.89;452113;116;922721;-78
2022/02/14 00:54:17;;;;;;;107.34;64.32;;;;;;;-0.78;65.34;102364.94;452734;116;922660;-79
2022/02/14 00:55:21;;;;;;;104.84;62.73;;;;;;;-0.78;65.38;102367.62;452905;116;923095;-79
2022/02/14 00:56:24;;;;;;;104.72;61.37;;;;;;;-0.78;65.39;102363.13;452492;115;930643;-78
2022/02/14 00:57:27;;;;;;;104.80;61.89;;;;;;;-0.78;65.34;102367.62;452561;115;922942;-78
2022/02/14 00:58:31;;;;;;;101.72;63.82;;;;;;;-0.78;65.29;102368.48;453217;116;922719;-79
2022/02/14 00:59:34;;;;;;;102.74;62.03;;;;;;;-0.79;65.29;102366.76;452773;116;923318;-79
2022/02/14 01:00:37;;;;;;;97.46;60.16;;;;;;;-0.81;65.27;102371.34;450922;116;922597;-75
2022/02/14 01:01:40;;;;;;;97.52;61.39;;;;;;;-0.80;65.25;102375.74;450834;115;922956;-79
2022/02/14 01:02:44;;;;;;;94.74;59.43;;;;;;;-0.81;65.21;102378.51;449956;116;922444;-78
2022/02/14 01:03:48;;;;;;;96.31;59.65;;;;;;;-0.83;65.18;102377.77;451916;116;923024;-78
2022/02/14 01:04:51;;;;;;;93.89;54.72;;;;;;;-0.84;65.18;102376.91;451170;115;930428;-79
2022/02/14 01:05:54;;;;;;;89.97;52.73;;;;;;;-0.85;65.24;102377.86;452332;115;922750;-79
2022/02/14 01:06:58;;;;;;;89.59;52.63;;;;;;;-0.86;65.25;102376.13;451623;116;922634;-76
2022/02/14 01:08:01;;;;;;;88.04;53.08;;;;;;;-0.86;65.35;102381.48;451253;116;922609;-79
2022/02/14 01:09:04;;;;;;;85.01;52.26;;;;;;;-0.86;65.38;102378.81;451611;115;931683;-79
2022/02/14 01:10:10;;;;;;;82.76;50.65;;;;;;;-0.86;65.34;102376.13;452079;116;922587;-78
2022/02/14 01:11:13;;;;;;;81.68;49.11;;;;;;;-0.87;65.33;102369.05;451787;116;922476;-78
2022/02/14 01:12:16;;;;;;;74.86;47.15;;;;;;;-0.87;65.37;102369.05;451868;116;922454;-78
2022/02/14 01:13:19;;;;;;;69.14;41.85;;;;;;;-0.87;65.37;102377.08;451885;116;922543;-77
2022/02/14 01:14:22;;;;;;;61.32;37.19;;;;;;;-0.85;65.42;102377.86;451518;116;922536;-77
2022/02/14 01:15:27;;;;;;;57.23;37.33;;;;;;;-0.84;65.39;102379.58;452638;116;922924;-78
2022/02/14 01:16:30;;;;;;;57.06;36.38;;;;;;;-0.85;65.34;102377.86;452262;116;930545;-79
2022/02/14 01:17:36;;;;;;;54.28;35.65;;;;;;;-0.84;65.39;102374.22;445372;116;922742;-78
2022/02/14 01:18:39;;;;;;;74.66;43.72;;;;;;;-0.83;65.47;102372.41;436743;118;922576;-76
2022/02/14 01:19:43;;;;;;;93.84;55.52;;;;;;;-0.83;65.42;102370.59;437287;120;923007;-77
2022/02/14 01:20:47;;;;;;;95.72;58.96;;;;;;;-0.82;65.28;102366.94;437561;118;923027;-78
2022/02/14 01:21:50;;;;;;;105.40;63.32;;;;;;;-0.82;65.21;102366.94;437583;118;923668;-79
2022/02/14 01:22:53;;;;;;;112.42;65.52;;;;;;;-0.82;65.14;102361.58;435703;118;922497;-79
2022/02/14 01:23:56;;;;;;;110.03;68.02;;;;;;;-0.81;65.00;102367.80;436545;120;922914;-79
2022/02/14 01:24:59;;;;;;;115.73;68.29;;;;;;;-0.83;64.92;102362.56;433199;120;922596;-79
2022/02/14 01:26:03;;;;;;;107.19;63.33;;;;;;;-0.85;64.84;102359.97;436520;119;922938;-77
2022/02/14 01:27:06;;;;;;;108.25;63.42;;;;;;;-0.85;64.73;102365.33;432649;121;922859;-79
2022/02/14 01:28:09;;;;;;;105.76;63.04;;;;;;;-0.87;64.66;102363.69;427114;123;930453;-79
2022/02/14 01:29:12;;;;;;;110.78;64.87;;;;;;;-0.88;64.66;102362.83;434822;119;923012;-80
2022/02/14 01:30:18;;;;;;;111.02;63.86;;;;;;;-0.89;64.64;102361.13;433874;119;923429;-80
2022/02/14 01:31:21;;;;;;;102.53;61.47;;;;;;;-0.90;64.66;102354.05;434809;121;922622;-76
2022/02/14 01:32:24;;;;;;;99.44;60.06;;;;;;;-0.90;64.68;102358.55;433893;120;930435;-78
2022/02/14 01:33:27;;;;;;;104.86;62.82;;;;;;;-0.93;64.74;102351.55;434514;120;922910;-76
2022/02/14 01:34:32;;;;;;;107.91;61.95;;;;;;;-0.91;64.79;102348.79;434341;119;923023;-78
2022/02/14 01:35:35;;;;;;;108.68;63.94;;;;;;;-0.92;64.70;102357.77;435015;121;922644;-78
2022/02/14 01:36:38;;;;;;;105.67;63.27;;;;;;;-0.92;64.67;102357.77;434459;121;922595;-79
2022/02/14 01:37:41;;;;;;;100.22;60.39;;;;;;;-0.94;64.50;102357.03;434063;121;926855;-79
2022/02/14 01:38:44;;;;;;;100.81;60.99;;;;;;;-0.95;64.46;102366.02;434755;119;922663;-78
2022/02/14 01:39:47;;;;;;;100.04;60.06;;;;;;;-0.99;64.41;102351.94;433825;119;922581;-78
2022/02/14 01:40:50;;;;;;;96.12;59.30;;;;;;;-1.02;64.43;102362.86;433726;121;922575;-79
2022/02/14 01:41:54;;;;;;;95.32;59.32;;;;;;;-1.03;64.52;102357.59;434103;119;930617;-79
2022/02/14 01:42:57;;;;;;;92.20;57.29;;;;;;;-1.06;64.56;102364.02;434862;119;922534;-79
2022/02/14 01:44:00;;;;;;;100.31;59.64;;;;;;;-1.07;64.58;102366.78;434830;121;922762;-80
2022/02/14 01:45:04;;;;;;;89.26;55.08;;;;;;;-1.09;64.63;102366.00;434461;121;923174;-75
2022/02/14 01:46:08;;;;;;;87.59;53.86;;;;;;;-1.09;64.64;102360.65;433739;121;922526;-79
2022/02/14 01:47:17;;;;;;;88.67;55.29;;;;;;;-1.09;64.65;102366.00;434706;119;922654;-80
2022/02/14 01:48:20;;;;;;;84.83;53.28;;;;;;;-1.10;64.67;102361.63;433698;121;922717;-79
2022/02/14 01:49:23;;;;;;;86.37;53.69;;;;;;;-1.11;64.69;102365.27;437280;120;923204;-76
2022/02/14 01:50:26;;;;;;;93.35;57.19;;;;;;;-1.11;64.74;102365.27;434317;120;922650;-76
2022/02/14 01:51:29;;;;;;;86.90;51.55;;;;;;;-1.13;64.79;102359.99;433301;121;922539;-77
2022/02/14 01:52:35;;;;;;;84.48;53.88;;;;;;;-1.11;64.92;102366.13;434186;120;922774;-79
2022/02/14 01:53:37;;;;;;;85.35;53.08;;;;;;;-1.10;65.03;102364.31;434135;121;923009;-78
2022/02/14 01:54:43;;;;;;;84.58;53.45;;;;;;;-1.08;65.06;102365.05;429835;120;922747;-77
2022/02/14 01:55:46;;;;;;;82.33;49.59;;;;;;;-1.08;65.11;102365.05;429869;120;923206;-79
2022/02/14 01:56:49;;;;;;;78.79;47.39;;;;;;;-1.08;65.13;102362.37;437018;120;923135;-79
2022/02/14 01:57:52;;;;;;;80.49;48.44;;;;;;;-1.05;65.19;102367.55;436717;120;922710;-78
2022/02/14 01:58:55;;;;;;;72.32;43.32;;;;;;;-1.04;65.28;102366.57;436870;118;922710;-79
2022/02/14 01:59:58;;;;;;;63.71;40.41;;;;;;;-1.02;65.32;102361.99;437740;118;922578;-79
2022/02/14 02:01:01;;;;;;;57.99;34.81;;;;;;;-1.00;65.36;102360.95;437382;119;923291;-78
2022/02/14 02:02:07;;;;;;;46.15;30.83;;;;;;;-0.98;65.34;102364.38;437153;120;922507;-78
2022/02/14 02:03:10;;;;;;;48.58;29.37;;;;;;;-0.97;65.35;102358.07;436931;118;922677;-77
2022/02/14 02:04:13;;;;;;;42.58;29.12;;;;;;;-0.95;65.31;102355.30;436766;118;922648;-79
2022/02/14 02:05:17;;;;;;;53.39;32.26;;;;;;;-0.95;65.36;102348.14;437090;119;922578;-75
2022/02/14 02:06:22;;;;;;;71.39;45.19;;;;;;;-0.93;65.44;102348.87;436618;120;922588;-75
2022/02/14 02:07:25;;;;;;;67.41;42.62;;;;;;;-0.91;65.33;102356.82;436622;120;922967;-77
2022/02/14 02:08:29;;;;;;;67.36;42.61;;;;;;;-0.90;65.28;102354.05;437053;118;930590;-79
2022/02/14 02:09:32;;;;;;;79.53;49.44;;;;;;;-0.90;65.14;102351.38;436212;120;922707;-77
2022/02/14 02:10:37;;;;;;;76.10;44.31;;;;;;;-0.92;64.91;102353.28;436522;120;923265;-75
2022/02/14 02:13:03;;;;;;;80.31;48.35;;;;;;;-0.93;64.92;102353.37;436484;118;922793;-76
2022/02/14 02:14:06;;;;;;;75.96;47.99;;;;;;;-0.95;64.92;102349.95;438889;118;922755;-77
2022/02/14 02:15:10;;;;;;;76.72;45.16;;;;;;;-0.97;64.88;102349.17;436806;120;922596;-77
2022/02/14 02:16:14;;;;;;;74.35;46.41;;;;;;;-0.99;64.83;102348.40;434267;121;922476;-78
2022/02/14 02:17:17;;;;;;;75.68;46.44;;;;;;;-1.02;64.84;102351.28;435185;118;930041;-78
2022/02/14 02:18:21;;;;;;;79.47;48.49;;;;;;;-1.03;64.96;102347.75;435986;119;922616;-78
2022/02/14 02:19:24;;;;;;;94.34;55.92;;;;;;;-1.04;65.02;102348.70;435123;120;923070;-75
2022/02/14 02:20:27;;;;;;;88.47;53.44;;;;;;;-1.04;64.89;102346.02;438575;119;922896;-77
2022/02/14 02:21:30;;;;;;;82.26;51.11;;;;;;;-1.05;64.82;102347.00;443851;117;923239;-75
2022/02/14 02:22:34;;;;;;;91.03;54.61;;;;;;;-1.06;64.77;102350.62;435814;120;930740;-78
2022/02/14 02:23:40;;;;;;;82.06;52.21;;;;;;;-1.06;64.60;102352.45;435871;120;922521;-78
2022/02/14 02:24:46;;;;;;;80.97;50.69;;;;;;;-1.08;64.55;102357.89;434569;119;930669;-77
2022/02/14 02:25:49;;;;;;;81.81;52.31;;;;;;;-1.09;64.56;102347.27;435280;118;922703;-77
2022/02/14 02:27:02;;;;;;;80.42;51.49;;;;;;;-1.10;64.53;102351.75;436427;119;922712;-77
2022/02/14 02:28:05;;;;;;;79.96;51.35;;;;;;;-1.11;64.49;102347.39;435603;120;923055;-77
2022/02/14 02:29:09;;;;;;;81.72;52.49;;;;;;;-1.13;64.45;102349.29;440572;119;922684;-78
2022/02/14 02:30:17;;;;;;;83.71;52.35;;;;;;;-1.15;64.42;102353.00;440572;119;922586;-78
2022/02/14 02:31:20;;;;;;;82.51;52.64;;;;;;;-1.17;64.43;102346.91;436016;120;922895;-76
2022/02/14 02:32:24;;;;;;;78.99;50.98;;;;;;;-1.19;64.50;102341.64;444358;118;922614;-75
2022/02/14 02:33:32;;;;;;;84.20;52.57;;;;;;;-1.20;64.55;102339.05;444345;118;922974;-76
2022/02/14 02:34:38;;;;;;;75.88;48.36;;;;;;;-1.21;64.56;102340.03;444275;117;922654;-74
2022/02/14 02:35:41;;;;;;;78.84;51.01;;;;;;;-1.22;64.58;102341.84;444648;118;923145;-75
2022/02/14 02:36:56;;;;;;;76.93;49.03;;;;;;;-1.23;64.53;102345.47;437417;120;922626;-77
2022/02/14 02:37:59;;;;;;;75.01;49.09;;;;;;;-1.23;64.57;102344.61;439043;119;922877;-74
2022/02/14 02:39:02;;;;;;;85.71;51.28;;;;;;;-1.25;64.60;102344.70;440485;119;922490;-75
2022/02/14 02:40:07;;;;;;;83.19;51.26;;;;;;;-1.24;64.55;102348.23;441749;119;922573;-78
2022/02/14 02:41:10;;;;;;;88.39;52.51;;;;;;;-1.27;64.55;102350.14;445319;117;922633;-76
2022/02/14 02:42:19;;;;;;;82.81;52.43;;;;;;;-1.29;64.56;102348.53;442644;118;922624;-75
2022/02/14 02:43:22;;;;;;;82.12;51.94;;;;;;;-1.31;64.61;102350.42;434808;119;922540;-77
2022/02/14 02:44:25;;;;;;;88.06;50.65;;;;;;;-1.32;64.63;102344.21;435788;120;923286;-79
2022/02/14 02:45:28;;;;;;;89.89;54.99;;;;;;;-1.32;64.67;102335.33;434728;119;922846;-77
2022/02/14 02:46:32;;;;;;;86.59;53.34;;;;;;;-1.32;64.76;102333.51;435159;119;930657;-77
2022/02/14 02:47:35;;;;;;;89.34;55.84;;;;;;;-1.31;64.77;102340.59;440877;118;922881;-78
2022/02/14 02:48:38;;;;;;;90.83;56.68;;;;;;;-1.31;64.78;102339.72;440464;120;922901;-75
2022/02/14 02:49:42;;;;;;;90.17;55.44;;;;;;;-1.32;64.76;102346.89;436002;119;922910;-75
2022/02/14 02:51:04;;;;;;;94.98;56.25;;;;;;;-1.32;64.75;102336.19;444384;118;922571;-78
2022/02/14 02:52:09;;;;;;;91.41;54.58;;;;;;;-1.31;64.79;102335.23;436717;120;930503;-77
2022/02/14 02:53:12;;;;;;;92.99;56.13;;;;;;;-1.31;64.79;102337.05;443750;117;922639;-78
2022/02/14 02:54:16;;;;;;;97.88;58.29;;;;;;;-1.32;64.76;102333.51;437448;118;922722;-80
2022/02/14 02:55:19;;;;;;;95.69;60.18;;;;;;;-1.32;64.78;102338.00;436892;119;922622;-77
2022/02/14 02:56:22;;;;;;;93.84;57.15;;;;;;;-1.32;64.80;102338.00;436593;120;922706;-77
2022/02/14 02:57:26;;;;;;;96.29;58.05;;;;;;;-1.33;64.85;102325.60;441896;119;930368;-76
2022/02/14 02:58:29;;;;;;;98.72;58.14;;;;;;;-1.32;64.88;102330.83;438696;118;922636;-78
2022/02/14 02:59:33;;;;;;;89.47;54.46;;;;;;;-1.31;64.83;102332.56;438196;118;928232;-75
2022/02/14 03:00:37;;;;;;;86.28;50.85;;;;;;;-1.31;64.77;102329.88;436595;120;924761;-75
2022/02/14 03:01:41;;;;;;;81.64;49.70;;;;;;;-1.31;64.77;102331.70;445195;118;922639;-79
2022/02/14 03:02:44;;;;;;;79.12;47.75;;;;;;;-1.31;64.81;102335.23;443664;117;923014;-78
2022/02/14 03:03:48;;;;;;;78.31;47.14;;;;;;;-1.30;64.92;102333.42;444129;117;922664;-80
2022/02/14 03:04:51;;;;;;;79.29;48.28;;;;;;;-1.29;64.85;102335.15;436999;120;922816;-78
2022/02/14 03:05:54;;;;;;;83.97;47.64;;;;;;;-1.29;64.81;102336.02;440447;118;930358;-78
2022/02/14 03:06:57;;;;;;;77.30;46.25;;;;;;;-1.29;64.69;102335.15;437086;119;922830;-77
2022/02/14 03:08:00;;;;;;;83.54;46.94;;;;;;;-1.29;64.59;102341.36;437873;118;923092;-80
2022/02/14 03:09:06;;;;;;;92.27;53.32;;;;;;;-1.29;64.59;102336.02;437059;120;922451;-79
2022/02/14 03:10:16;;;;;;;102.42;59.92;;;;;;;-1.18;64.64;102329.98;498574;103;1203795;-78
2022/02/14 03:11:20;;;;;;;92.06;55.25;;;;;;;-1.28;64.55;102337.73;500437;104;922884;-77
2022/02/14 03:12:23;;;;;;;89.48;55.21;;;;;;;-1.25;64.49;102336.67;498999;105;922793;-78
2022/02/14 03:13:26;;;;;;;88.37;52.23;;;;;;;-1.25;64.40;102331.31;499490;104;923491;-77
2022/02/14 03:14:29;;;;;;;87.35;51.70;;;;;;;-1.24;64.38;102332.18;499245;104;922525;-78
2022/02/14 03:15:32;;;;;;;85.60;51.41;;;;;;;-1.25;64.33;102336.67;495998;105;923058;-76
2022/02/14 03:16:35;;;;;;;85.16;52.06;;;;;;;-1.26;64.22;102338.48;495165;105;922628;-79
2022/02/14 03:17:39;;;;;;;84.10;49.42;;;;;;;-1.27;64.26;102339.43;497273;105;922507;-79
2022/02/14 03:18:42;;;;;;;87.95;52.19;;;;;;;-1.29;64.21;102335.15;496023;105;922550;-78
2022/02/14 03:19:45;;;;;;;87.14;53.44;;;;;;;-1.31;64.10;102343.27;495225;105;922660;-80
2022/02/14 03:20:48;;;;;;;89.27;53.46;;;;;;;-1.33;64.11;102342.52;494769;105;922523;-77
2022/02/14 03:21:52;;;;;;;92.12;54.35;;;;;;;-1.35;63.99;102341.74;494237;105;922576;-76
2022/02/14 03:22:55;;;;;;;89.71;54.46;;;;;;;-1.38;63.99;102341.09;495143;105;922937;-74
2022/02/14 03:23:58;;;;;;;94.07;56.60;;;;;;;-1.39;64.00;102340.22;494237;105;922445;-75
2022/02/14 03:25:01;;;;;;;94.77;55.21;;;;;;;-1.41;63.98;102335.91;493559;105;922586;-77
2022/02/14 03:26:05;;;;;;;97.99;56.99;;;;;;;-1.42;63.93;102339.53;493867;105;922923;-80
2022/02/14 03:27:08;;;;;;;89.34;55.14;;;;;;;-1.44;63.98;102339.65;494439;105;922608;-78
2022/02/14 03:28:11;;;;;;;90.22;54.54;;;;;;;-1.45;64.00;102345.08;493812;105;930669;-78
2022/02/14 03:29:16;;;;;;;92.62;54.83;;;;;;;-1.46;64.04;102343.36;493818;105;922849;-78
2022/02/14 03:30:19;;;;;;;89.66;54.53;;;;;;;-1.46;64.09;102346.89;494400;105;922453;-79
2022/02/14 03:31:22;;;;;;;95.59;56.76;;;;;;;-1.45;64.25;102337.06;495406;105;922932;-78
2022/02/14 03:32:25;;;;;;;94.82;57.67;;;;;;;-1.45;64.34;102337.92;494878;105;922933;-77
2022/02/14 03:33:29;;;;;;;100.55;58.33;;;;;;;-1.44;64.33;102336.97;496513;105;930376;-78
2022/02/14 03:34:33;;;;;;;96.65;58.88;;;;;;;-1.43;64.28;102337.80;495858;105;930582;-76
2022/02/14 03:35:36;;;;;;;92.74;55.91;;;;;;;-1.44;64.22;102339.65;493511;105;922562;-78
2022/02/14 03:36:39;;;;;;;92.36;57.93;;;;;;;-1.44;64.17;102341.46;496030;105;922556;-79
2022/02/14 03:37:42;;;;;;;96.53;57.44;;;;;;;-1.46;64.17;102340.68;486009;107;923033;-78
2022/02/14 03:38:46;;;;;;;95.49;57.56;;;;;;;-1.47;64.12;102347.84;494701;105;922801;-78
2022/02/14 03:39:49;;;;;;;100.21;59.39;;;;;;;-1.49;64.11;102348.91;495534;105;922395;-78
2022/02/14 03:40:53;;;;;;;90.77;56.25;;;;;;;-1.52;64.10;102339.24;495742;105;922495;-79
2022/02/14 03:41:56;;;;;;;94.08;57.34;;;;;;;-1.53;64.12;102347.35;494503;105;922584;-77
2022/02/14 03:43:00;;;;;;;93.78;58.39;;;;;;;-1.55;64.13;102344.80;493329;105;922551;-78
2022/02/14 03:44:04;;;;;;;92.95;58.76;;;;;;;-1.56;64.20;102345.75;493933;105;922973;-76
2022/02/14 03:45:07;;;;;;;97.86;60.30;;;;;;;-1.56;64.27;102344.88;494200;105;930431;-79
2022/02/14 03:46:11;;;;;;;98.79;62.14;;;;;;;-1.57;64.30;102344.02;493345;105;922758;-79
2022/02/14 03:47:14;;;;;;;95.64;60.62;;;;;;;-1.56;64.29;102339.53;495290;105;922724;-75
2022/02/14 03:48:17;;;;;;;98.22;60.79;;;;;;;-1.55;64.32;102338.59;492491;105;922518;-78
2022/02/14 03:49:21;;;;;;;99.36;61.86;;;;;;;-1.55;64.33;102335.91;495494;105;922616;-76
2022/02/14 03:50:24;;;;;;;98.78;61.08;;;;;;;-1.56;64.27;102340.39;495966;105;922443;-79
2022/02/14 03:51:27;;;;;;;95.12;58.24;;;;;;;-1.55;64.29;102331.42;495433;105;922986;-77
2022/02/14 03:52:30;;;;;;;98.72;60.59;;;;;;;-1.55;64.26;102338.59;493616;105;922547;-80
2022/02/14 03:53:34;;;;;;;94.92;58.15;;;;;;;-1.56;64.26;102343.06;493786;105;922551;-78
2022/02/14 03:54:37;;;;;;;92.30;57.71;;;;;;;-1.56;64.33;102343.06;495875;105;922550;-80
2022/02/14 03:55:40;;;;;;;93.19;58.71;;;;;;;-1.55;64.41;102346.61;494336;105;922418;-79
2022/02/14 03:56:43;;;;;;;94.77;56.18;;;;;;;-1.53;64.54;102342.87;491743;105;922474;-79
2022/02/14 03:57:47;;;;;;;90.22;54.66;;;;;;;-1.52;64.74;102341.92;494543;105;922916;-79
2022/02/14 03:58:50;;;;;;;86.95;56.09;;;;;;;-1.48;64.76;102339.91;496538;105;922609;-77
2022/02/14 03:59:53;;;;;;;88.98;56.74;;;;;;;-1.46;64.76;102336.20;482553;108;922675;-77
2022/02/14 04:00:56;;;;;;;92.60;56.01;;;;;;;-1.44;64.75;102341.46;494441;105;922523;-82
2022/02/14 04:01:59;;;;;;;91.50;56.11;;;;;;;-1.43;64.77;102343.16;495569;105;922878;-79
2022/02/14 04:03:03;;;;;;;88.02;54.16;;;;;;;-1.42;64.69;102339.53;497698;105;922551;-78
2022/02/14 04:04:07;;;;;;;73.64;45.81;;;;;;;-1.42;64.62;102339.53;498026;105;922518;-76
2022/02/14 04:05:12;;;;;;;73.81;47.21;;;;;;;-1.42;64.72;102345.74;493304;105;922605;-78
2022/02/14 04:06:16;;;;;;;76.04;47.87;;;;;;;-1.42;64.74;102347.55;494634;105;930491;-78
2022/02/14 04:07:20;;;;;;;74.31;47.58;;;;;;;-1.42;64.77;102350.23;497027;105;922596;-77
2022/02/14 04:08:23;;;;;;;77.74;49.53;;;;;;;-1.42;64.80;102344.87;497512;105;923368;-78
2022/02/14 04:09:26;;;;;;;81.76;52.60;;;;;;;-1.42;64.77;102350.23;495026;105;922936;-79
2022/02/14 04:10:30;;;;;;;81.58;50.28;;;;;;;-1.42;64.77;102347.55;488693;105;930509;-79
2022/02/14 04:11:33;;;;;;;80.94;50.52;;;;;;;-1.42;64.75;102342.20;489906;106;923049;-78
2022/02/14 04:12:36;;;;;;;83.83;50.18;;;;;;;-1.42;64.74;102343.06;488627;106;922480;-78
2022/02/14 04:13:39;;;;;;;86.82;52.36;;;;;;;-1.42;64.71;102345.74;487907;106;923319;-76
2022/02/14 04:14:42;;;;;;;82.52;51.76;;;;;;;-1.43;64.71;102341.34;487738;106;922860;-80
2022/02/14 04:15:45;;;;;;;82.56;51.33;;;;;;;-1.42;64.70;102342.20;488913;106;922604;-78
2022/02/14 04:16:48;;;;;;;83.33;53.34;;;;;;;-1.43;64.71;102338.66;488279;106;922612;-78
2022/02/14 04:17:51;;;;;;;86.84;54.13;;;;;;;-1.43;64.66;102340.48;488580;106;922589;-79
2022/02/14 04:18:54;;;;;;;84.33;51.93;;;;;;;-1.44;64.74;102339.65;485688;106;922596;-77
2022/02/14 04:19:58;;;;;;;84.31;50.51;;;;;;;-1.44;64.74;102341.46;486562;106;922776;-77
2022/02/14 04:21:03;;;;;;;85.97;51.74;;;;;;;-1.45;64.79;102340.59;487111;106;922526;-79
2022/02/14 04:22:06;;;;;;;89.72;55.02;;;;;;;-1.44;64.84;102346.81;486920;106;922626;-79
2022/02/14 04:23:09;;;;;;;88.97;57.23;;;;;;;-1.43;64.82;102346.69;493599;106;922562;-81
2022/02/14 04:24:13;;;;;;;91.41;56.03;;;;;;;-1.43;64.74;102344.02;487988;106;922666;-77
2022/02/14 04:25:16;;;;;;;88.28;53.92;;;;;;;-1.43;64.59;102343.16;491382;106;923008;-79
2022/02/14 04:26:19;;;;;;;88.45;54.21;;;;;;;-1.43;64.45;102346.69;489677;106;922714;-74
2022/02/14 04:27:22;;;;;;;86.84;54.24;;;;;;;-1.43;64.34;102343.16;490014;106;922413;-75
2022/02/14 04:28:25;;;;;;;88.07;53.71;;;;;;;-1.44;64.26;102352.16;487905;106;922542;-80
2022/02/14 04:29:28;;;;;;;88.92;55.68;;;;;;;-1.47;64.21;102345.17;490629;106;922610;-76
2022/02/14 04:30:32;;;;;;;89.87;55.86;;;;;;;-1.49;64.14;102344.39;488554;106;922798;-77
2022/02/14 04:31:35;;;;;;;93.21;55.25;;;;;;;-1.50;64.21;102349.86;488476;106;922473;-75
2022/02/14 04:32:39;;;;;;;90.04;56.66;;;;;;;-1.51;64.22;102350.81;487639;106;922377;-76
2022/02/14 04:33:42;;;;;;;95.22;60.09;;;;;;;-1.52;64.21;102347.27;487512;106;922493;-79
2022/02/14 04:34:45;;;;;;;96.58;58.97;;;;;;;-1.52;64.30;102354.43;487025;106;922462;-76
2022/02/14 04:35:49;;;;;;;86.92;54.39;;;;;;;-1.54;64.34;102346.49;488563;106;922528;-81
2022/02/14 04:36:52;;;;;;;84.59;52.79;;;;;;;-1.52;64.36;102349.94;488374;106;922644;-76
2022/02/14 04:37:59;;;;;;;76.43;46.22;;;;;;;-1.52;64.46;102341.92;488514;106;922939;-79
2022/02/14 04:39:00;;;;;;;71.87;43.32;;;;;;;-1.50;64.43;102350.72;488512;106;930124;-75
2022/02/14 04:40:05;;;;;;;67.71;42.08;;;;;;;-1.50;64.32;102353.39;488533;106;922631;-77
2022/02/14 04:41:09;;;;;;;67.79;41.18;;;;;;;-1.50;64.31;102353.39;488356;106;923083;-76
2022/02/14 04:42:12;;;;;;;66.73;39.83;;;;;;;-1.50;64.32;102353.39;487740;106;923347;-77
2022/02/14 04:43:16;;;;;;;65.14;39.41;;;;;;;-1.50;64.32;102353.39;486476;106;923053;-77
2022/02/14 04:44:19;;;;;;;63.88;38.04;;;;;;;-1.50;64.38;102358.75;487095;106;922505;-77
2022/02/14 04:45:22;;;;;;;66.90;40.49;;;;;;;-1.49;64.36;102355.09;485217;106;922963;-77
2022/02/14 04:46:26;;;;;;;60.25;37.74;;;;;;;-1.49;64.25;102362.28;487152;106;922505;-78